createdAt,value
2023-04-16T00:02:25.612Z,5.82
2023-04-16T00:05:10.242Z,6.93
2023-04-16T00:07:55.404Z,6.40
2023-04-16T00:10:40.259Z,6.65
2023-04-16T00:13:27.349Z,5.00
2023-04-16T00:16:12.162Z,6.57
2023-04-16T00:18:57.183Z,5.97
2023-04-16T00:21:41.941Z,6.20
2023-04-16T00:24:26.969Z,6.47
2023-04-16T00:27:11.779Z,7.68
2023-04-16T00:29:56.995Z,6.40
2023-04-16T00:32:41.770Z,6.20
2023-04-16T00:35:26.913Z,5.82
2023-04-16T00:38:11.871Z,4.88
2023-04-16T00:40:58.736Z,5.88
2023-04-16T00:43:43.461Z,5.25
2023-04-16T00:46:28.716Z,6.33
2023-04-16T00:49:14.739Z,7.32
2023-04-16T00:52:02.374Z,7.68
2023-04-16T00:54:47.317Z,8.50
2023-04-16T00:57:32.339Z,6.85
2023-04-16T01:00:17.261Z,7.83
2023-04-16T01:03:02.569Z,8.45
2023-04-16T01:05:49.289Z,9.13
2023-04-16T01:08:34.555Z,9.10
2023-04-16T01:11:19.415Z,9.15
2023-04-16T01:14:04.609Z,9.13
2023-04-16T01:16:49.551Z,9.20
2023-04-16T01:19:38.360Z,7.07
2023-04-16T01:22:23.017Z,9.00
2023-04-16T01:25:07.808Z,8.45
2023-04-16T01:27:54.715Z,9.17
2023-04-16T01:30:39.583Z,7.88
2023-04-16T01:33:24.600Z,7.13
2023-04-16T01:36:09.358Z,8.48
2023-04-16T01:38:54.358Z,8.45
2023-04-16T01:41:39.913Z,8.23
2023-04-16T01:44:25.405Z,7.43
2023-04-16T01:47:10.432Z,8.15
2023-04-16T01:49:55.534Z,8.57
2023-04-16T01:52:40.322Z,8.95
2023-04-16T01:55:25.578Z,7.30
2023-04-16T01:58:10.959Z,6.82
2023-04-16T02:00:56.212Z,8.60
2023-04-16T02:03:41.562Z,8.65
2023-04-16T02:06:27.318Z,8.48
2023-04-16T02:09:12.099Z,9.10
2023-04-16T02:11:57.202Z,9.13
2023-04-16T02:14:42.456Z,8.77
2023-04-16T02:17:27.218Z,8.93
2023-04-16T02:20:12.197Z,9.30
2023-04-16T02:22:57.337Z,9.03
2023-04-16T02:25:43.582Z,7.90
2023-04-16T02:28:28.449Z,8.57
2023-04-16T02:31:13.501Z,8.60
2023-04-16T02:33:58.683Z,8.13
2023-04-16T02:36:43.380Z,8.37
2023-04-16T02:39:28.476Z,8.05
2023-04-16T02:42:14.129Z,8.70
2023-04-16T02:44:59.020Z,8.20
2023-04-16T02:47:43.919Z,7.28
2023-04-16T02:50:28.812Z,8.57
2023-04-16T02:53:13.748Z,9.10
2023-04-16T02:55:58.822Z,7.82
2023-04-16T02:58:43.684Z,9.25
2023-04-16T03:01:28.967Z,7.97
2023-04-16T03:04:14.144Z,7.13
2023-04-16T03:06:59.197Z,7.57
2023-04-16T03:09:44.149Z,7.13
2023-04-16T03:12:29.028Z,6.97
2023-04-16T03:15:13.702Z,6.63
2023-04-16T03:17:59.428Z,6.57
2023-04-16T03:20:44.149Z,6.20
2023-04-16T03:23:29.267Z,6.70
2023-04-16T03:26:14.131Z,6.10
2023-04-16T03:28:59.131Z,7.18
2023-04-16T03:31:43.850Z,8.20
2023-04-16T03:34:29.005Z,7.35
2023-04-16T03:37:13.836Z,6.35
2023-04-16T03:39:59.084Z,6.25
2023-04-16T03:42:44.180Z,5.05
2023-04-16T03:45:29.293Z,5.37
2023-04-16T03:48:14.048Z,6.57
2023-04-16T03:50:59.129Z,7.32
2023-04-16T03:53:43.886Z,6.70
2023-04-16T03:56:29.106Z,7.25
2023-04-16T03:59:13.828Z,7.10
2023-04-16T04:01:58.971Z,7.90
2023-04-16T04:04:44.283Z,7.10
2023-04-16T04:07:29.304Z,7.38
2023-04-16T04:10:14.246Z,7.20
2023-04-16T04:12:59.468Z,8.70
2023-04-16T04:15:44.571Z,7.05
2023-04-16T04:18:29.549Z,7.22
2023-04-16T04:21:14.425Z,6.72
2023-04-16T04:23:59.618Z,6.75
2023-04-16T04:26:44.394Z,6.80
2023-04-16T04:29:29.479Z,7.10
2023-04-16T04:32:14.468Z,8.15
2023-04-16T04:35:02.415Z,7.25
2023-04-16T04:37:47.322Z,6.53
2023-04-16T04:40:32.039Z,6.57
2023-04-16T04:43:16.993Z,7.47
2023-04-16T04:46:02.226Z,6.43
2023-04-16T04:48:47.583Z,6.35
2023-04-16T04:51:32.902Z,5.85
2023-04-16T04:54:17.843Z,6.70
2023-04-16T04:57:02.914Z,6.30
2023-04-16T04:59:47.783Z,5.40
2023-04-16T05:02:32.950Z,6.70
2023-04-16T05:05:18.067Z,6.18
2023-04-16T05:08:03.104Z,6.73
2023-04-16T05:10:48.046Z,6.78
2023-04-16T05:13:33.132Z,6.75
2023-04-16T05:16:17.912Z,7.35
2023-04-16T05:19:03.299Z,7.05
2023-04-16T05:21:48.282Z,6.83
2023-04-16T05:24:33.455Z,6.88
2023-04-16T05:27:18.315Z,6.63
2023-04-16T05:30:03.740Z,6.82
2023-04-16T05:32:48.694Z,6.88
2023-04-16T05:35:34.948Z,7.07
2023-04-16T05:38:19.784Z,6.22
2023-04-16T05:41:04.892Z,6.43
2023-04-16T05:43:49.748Z,7.38
2023-04-16T05:46:35.257Z,7.05
2023-04-16T05:49:20.190Z,7.43
2023-04-16T05:52:05.735Z,6.82
2023-04-16T05:54:50.868Z,6.35
2023-04-16T05:57:36.093Z,6.53
2023-04-16T06:00:20.914Z,6.47
2023-04-16T06:03:06.288Z,7.37
2023-04-16T06:05:51.734Z,6.90
2023-04-16T06:08:36.461Z,7.43
2023-04-16T06:11:21.436Z,6.95
2023-04-16T06:14:06.592Z,7.03
2023-04-16T06:16:51.362Z,6.43
2023-04-16T06:19:36.330Z,6.45
2023-04-16T06:22:21.368Z,6.65
2023-04-16T06:25:06.446Z,7.15
2023-04-16T06:27:51.453Z,7.35
2023-04-16T06:30:36.675Z,7.93
2023-04-16T06:33:21.524Z,5.40
2023-04-16T06:36:06.907Z,5.78
2023-04-16T06:38:51.833Z,7.60
2023-04-16T06:41:37.023Z,6.32
2023-04-16T06:44:22.036Z,7.03
2023-04-16T06:47:07.767Z,6.47
2023-04-16T06:49:52.470Z,6.38
2023-04-16T06:52:37.328Z,7.03
2023-04-16T06:55:22.637Z,4.05
2023-04-16T06:58:07.277Z,5.20
2023-04-16T07:00:52.407Z,5.50
2023-04-16T07:03:37.388Z,6.15
2023-04-16T07:06:22.241Z,6.45
2023-04-16T07:09:07.156Z,6.30
2023-04-16T07:11:53.464Z,6.53
2023-04-16T07:14:38.298Z,6.28
2023-04-16T07:17:23.275Z,6.07
2023-04-16T07:20:08.750Z,6.05
2023-04-16T07:22:53.655Z,7.07
2023-04-16T07:25:38.484Z,5.83
2023-04-16T07:28:25.125Z,5.25
2023-04-16T07:31:09.927Z,5.60
2023-04-16T07:33:55.283Z,6.10
2023-04-16T07:36:40.260Z,5.93
2023-04-16T07:39:25.733Z,5.63
2023-04-16T07:42:10.786Z,5.45
2023-04-16T07:44:55.934Z,5.32
2023-04-16T07:47:40.875Z,5.18
2023-04-16T07:50:25.770Z,3.17
2023-04-16T07:53:10.769Z,5.00
2023-04-16T07:55:55.704Z,5.07
2023-04-16T07:58:40.741Z,5.00
2023-04-16T08:01:25.770Z,5.03
2023-04-16T08:04:10.711Z,4.95
2023-04-16T08:06:56.054Z,4.67
2023-04-16T08:09:48.680Z,5.45
2023-04-16T08:12:33.719Z,4.45
2023-04-16T08:15:19.024Z,5.35
2023-04-16T08:18:05.776Z,4.70
2023-04-16T08:20:51.122Z,6.10
2023-04-16T08:23:36.552Z,6.25
2023-04-16T08:26:21.672Z,8.13
2023-04-16T08:29:06.792Z,9.27
2023-04-16T08:31:53.378Z,8.90
2023-04-16T08:34:38.454Z,11.00
2023-04-16T08:37:23.257Z,9.55
2023-04-16T08:40:08.608Z,10.52
2023-04-16T08:42:56.059Z,11.35
2023-04-16T08:45:42.722Z,10.55
2023-04-16T08:48:33.741Z,13.17
2023-04-16T08:51:19.947Z,12.63
2023-04-16T08:54:09.060Z,14.85
2023-04-16T08:56:55.534Z,15.90
2023-04-16T08:59:45.850Z,15.32
2023-04-16T09:02:31.458Z,13.60
2023-04-16T09:05:17.796Z,13.88
2023-04-16T09:08:02.692Z,14.82
2023-04-16T09:10:48.801Z,14.23
2023-04-16T09:13:33.792Z,14.68
2023-04-16T09:16:20.265Z,15.00
2023-04-16T09:19:05.417Z,16.02
2023-04-16T09:21:50.980Z,16.20
2023-04-16T09:24:38.278Z,15.75
2023-04-16T09:27:26.164Z,15.43
2023-04-16T09:30:25.920Z,16.43
2023-04-16T09:33:22.807Z,15.95
2023-04-16T09:36:08.775Z,17.80
2023-04-16T09:38:57.412Z,17.75
2023-04-16T09:41:42.768Z,17.30
2023-04-16T09:44:36.636Z,18.73
2023-04-16T09:47:22.754Z,18.65
2023-04-16T09:50:11.298Z,18.70
2023-04-16T09:53:02.601Z,16.05
2023-04-16T09:55:47.613Z,16.50
2023-04-16T09:58:35.568Z,14.87
2023-04-16T10:01:20.811Z,14.60
2023-04-16T10:04:06.820Z,14.68
2023-04-16T10:07:07.306Z,13.20
2023-04-16T10:09:52.880Z,14.55
2023-04-16T10:12:37.842Z,13.93
2023-04-16T10:15:22.937Z,14.73
2023-04-16T10:18:07.821Z,14.15
2023-04-16T10:20:52.985Z,14.20
2023-04-16T10:23:41.754Z,13.90
2023-04-16T10:26:27.616Z,12.73
2023-04-16T10:29:13.299Z,14.40
2023-04-16T10:31:59.331Z,14.52
2023-04-16T10:34:45.442Z,14.05
2023-04-16T10:37:31.740Z,13.23
2023-04-16T10:40:26.913Z,12.83
2023-04-16T10:43:17.610Z,11.70
2023-04-16T10:46:19.314Z,13.52
2023-04-16T10:49:23.920Z,14.02
2023-04-16T10:52:14.725Z,13.18
2023-04-16T10:55:00.822Z,13.77
2023-04-16T10:57:49.540Z,13.93
2023-04-16T11:00:49.286Z,14.45
2023-04-16T11:03:34.235Z,14.57
2023-04-16T11:06:26.879Z,14.75
2023-04-16T11:09:50.293Z,15.13
2023-04-16T11:12:40.341Z,14.77
2023-04-16T11:15:30.741Z,15.05
2023-04-16T11:18:19.654Z,14.30
2023-04-16T11:21:11.166Z,15.45
2023-04-16T11:23:57.586Z,13.90
2023-04-16T11:26:42.413Z,14.82
2023-04-16T11:29:27.491Z,14.18
2023-04-16T11:32:22.105Z,17.58
2023-04-16T11:35:17.998Z,12.90
2023-04-16T11:38:02.863Z,14.10
2023-04-16T11:40:49.837Z,14.57
2023-04-16T11:43:34.600Z,15.30
2023-04-16T11:46:27.554Z,14.10
2023-04-16T11:49:12.881Z,13.52
2023-04-16T11:51:58.526Z,15.27
2023-04-16T11:54:50.290Z,14.70
2023-04-16T11:57:35.231Z,13.23
2023-04-16T12:00:21.131Z,14.63
2023-04-16T12:03:09.887Z,14.23
2023-04-16T12:05:54.953Z,13.97
2023-04-16T12:08:39.871Z,13.70
2023-04-16T12:11:43.458Z,13.65
2023-04-16T12:14:29.363Z,12.88
2023-04-16T12:17:20.965Z,15.18
2023-04-16T12:20:13.975Z,14.63
2023-04-16T12:23:01.292Z,14.57
2023-04-16T12:25:46.330Z,13.43
2023-04-16T12:28:33.864Z,13.07
2023-04-16T12:31:36.837Z,12.93
2023-04-16T12:34:22.238Z,13.87
2023-04-16T12:37:27.209Z,13.15
2023-04-16T12:40:12.136Z,13.07
2023-04-16T12:42:57.335Z,13.70
2023-04-16T12:45:42.184Z,14.80
2023-04-16T12:48:27.201Z,13.33
2023-04-16T12:51:11.984Z,14.05
2023-04-16T12:53:57.350Z,13.23
2023-04-16T12:56:42.362Z,15.00
2023-04-16T12:59:27.638Z,14.25
2023-04-16T13:02:12.835Z,13.67
2023-04-16T13:04:58.098Z,14.25
2023-04-16T13:07:43.328Z,13.73
2023-04-16T13:10:28.771Z,13.27
2023-04-16T13:13:14.109Z,13.35
2023-04-16T13:15:58.932Z,13.37
2023-04-16T13:18:43.744Z,11.45
2023-04-16T13:21:28.876Z,11.60
2023-04-16T13:24:13.629Z,11.93
2023-04-16T13:26:59.269Z,10.20
2023-04-16T13:29:44.523Z,12.13
2023-04-16T13:32:29.766Z,11.98
2023-04-16T13:35:14.517Z,12.57
2023-04-16T13:37:59.626Z,12.40
2023-04-16T13:40:44.642Z,12.20
2023-04-16T13:43:29.540Z,11.83
2023-04-16T13:46:14.372Z,11.70
2023-04-16T13:48:59.773Z,12.13
2023-04-16T13:51:45.872Z,11.73
2023-04-16T13:54:31.078Z,9.90
2023-04-16T13:57:16.154Z,10.80
2023-04-16T14:00:01.389Z,11.88
2023-04-16T14:02:48.738Z,11.25
2023-04-16T14:05:34.306Z,11.60
2023-04-16T14:08:21.157Z,11.45
2023-04-16T14:11:06.399Z,11.17
2023-04-16T14:13:51.178Z,11.25
2023-04-16T14:16:36.311Z,11.23
2023-04-16T14:19:21.278Z,10.43
2023-04-16T14:22:06.967Z,10.32
2023-04-16T14:24:53.907Z,10.17
2023-04-16T14:27:39.142Z,10.80
2023-04-16T14:30:23.949Z,11.05
2023-04-16T14:33:09.115Z,9.68
2023-04-16T14:35:54.724Z,9.73
2023-04-16T14:38:40.638Z,10.10
2023-04-16T14:41:25.620Z,9.38
2023-04-16T14:44:10.437Z,9.70
2023-04-16T14:46:55.697Z,9.80
2023-04-16T14:49:40.532Z,9.00
2023-04-16T14:52:26.364Z,9.40
2023-04-16T14:55:14.235Z,9.43
2023-04-16T14:57:59.609Z,9.10
2023-04-16T15:00:44.469Z,9.30
2023-04-16T15:03:32.856Z,8.90
2023-04-16T15:06:19.066Z,9.07
2023-04-16T15:09:04.191Z,8.93
2023-04-16T15:11:49.274Z,8.27
2023-04-16T15:14:34.100Z,9.20
2023-04-16T15:17:19.475Z,8.77
2023-04-16T15:20:09.022Z,9.10
2023-04-16T15:22:53.848Z,9.50
2023-04-16T15:25:38.834Z,9.50
2023-04-16T15:28:23.822Z,9.25
2023-04-16T15:31:08.605Z,9.27
2023-04-16T15:33:54.425Z,9.50
2023-04-16T15:36:39.614Z,9.00
2023-04-16T15:39:24.872Z,9.10
2023-04-16T15:42:11.087Z,9.55
2023-04-16T15:44:56.077Z,10.15
2023-04-16T15:47:41.982Z,9.53
2023-04-16T15:50:27.456Z,9.05
2023-04-16T15:53:12.781Z,9.32
2023-04-16T15:55:57.694Z,9.80
2023-04-16T15:58:42.607Z,9.30
2023-04-16T16:01:27.916Z,10.10
2023-04-16T16:04:12.730Z,10.43
2023-04-16T16:06:58.035Z,9.93
2023-04-16T16:09:43.592Z,10.48
2023-04-16T16:12:29.742Z,9.77
2023-04-16T16:15:15.144Z,9.47
2023-04-16T16:17:59.997Z,9.75
2023-04-16T16:20:45.645Z,9.88
2023-04-16T16:23:30.340Z,9.65
2023-04-16T16:26:15.923Z,10.75
2023-04-16T16:29:01.434Z,9.67
2023-04-16T16:31:46.323Z,9.85
2023-04-16T16:34:31.670Z,10.13
2023-04-16T16:37:16.710Z,10.68
2023-04-16T16:40:01.745Z,10.93
2023-04-16T16:42:46.898Z,9.70
2023-04-16T16:45:31.925Z,11.10
2023-04-16T16:48:16.781Z,10.40
2023-04-16T16:51:01.582Z,10.25
2023-04-16T16:53:46.677Z,11.23
2023-04-16T16:56:31.374Z,10.33
2023-04-16T16:59:16.411Z,11.32
2023-04-16T17:02:01.259Z,10.20
2023-04-16T17:04:48.451Z,10.80
2023-04-16T17:07:33.657Z,10.98
2023-04-16T17:10:21.494Z,10.47
2023-04-16T17:13:06.577Z,10.27
2023-04-16T17:15:51.516Z,10.85
2023-04-16T17:18:36.471Z,11.38
2023-04-16T17:21:21.526Z,10.80
2023-04-16T17:24:06.239Z,10.83
2023-04-16T17:26:51.164Z,10.75
2023-04-16T17:29:36.222Z,10.88
2023-04-16T17:32:21.254Z,11.00
2023-04-16T17:35:06.799Z,10.60
2023-04-16T17:37:51.981Z,11.03
2023-04-16T17:40:37.314Z,10.45
2023-04-16T17:43:22.274Z,11.30
2023-04-16T17:46:10.709Z,11.18
2023-04-16T17:48:55.521Z,10.10
2023-04-16T17:51:44.214Z,10.40
2023-04-16T17:58:37.877Z,9.70
2023-04-16T18:01:22.647Z,7.43
2023-04-16T18:04:08.056Z,9.45
2023-04-16T18:06:53.004Z,8.87
2023-04-16T18:09:38.054Z,9.48
2023-04-16T18:12:22.893Z,9.40
2023-04-16T18:15:08.643Z,9.95
2023-04-16T18:17:54.244Z,10.02
2023-04-16T18:20:39.154Z,9.40
2023-04-16T18:23:24.035Z,9.55
2023-04-16T18:26:09.485Z,8.75
2023-04-16T18:28:55.849Z,8.52
2023-04-16T18:31:41.160Z,10.90
2023-04-16T18:34:25.874Z,9.83
2023-04-16T18:37:11.124Z,10.05
2023-04-16T18:39:57.906Z,10.57
2023-04-16T18:42:43.383Z,10.52
2023-04-16T18:45:28.350Z,10.63
2023-04-16T18:48:13.189Z,10.60
2023-04-16T18:50:58.398Z,9.80
2023-04-16T18:53:45.179Z,10.57
2023-04-16T18:56:30.991Z,11.18
2023-04-16T18:59:15.906Z,11.00
2023-04-16T19:02:00.847Z,10.73
2023-04-16T19:04:46.262Z,9.88
2023-04-16T19:07:31.009Z,9.73
2023-04-16T19:10:16.527Z,10.25
2023-04-16T19:13:01.336Z,9.90
2023-04-16T19:15:46.527Z,10.37
2023-04-16T19:18:31.489Z,10.32
2023-04-16T19:21:16.196Z,9.20
2023-04-16T19:24:01.258Z,9.93
2023-04-16T19:26:46.060Z,10.10
2023-04-16T19:29:34.311Z,11.67
2023-04-16T19:32:19.281Z,10.65
2023-04-16T19:35:04.663Z,10.48
2023-04-16T19:37:50.373Z,10.15
2023-04-16T19:40:35.516Z,10.20
2023-04-16T19:43:20.355Z,10.50
2023-04-16T19:46:05.295Z,9.07
2023-04-16T19:48:50.425Z,10.85
2023-04-16T19:51:35.537Z,10.85
2023-04-16T19:54:20.692Z,11.05
2023-04-16T19:57:05.914Z,10.17
2023-04-16T19:59:50.791Z,10.32
2023-04-16T20:02:36.059Z,10.45
2023-04-16T20:05:21.179Z,10.10
2023-04-16T20:08:06.481Z,9.27
2023-04-16T20:10:53.816Z,11.10
2023-04-16T20:13:38.793Z,10.18
2023-04-16T20:16:23.662Z,10.27
2023-04-16T20:19:09.140Z,11.05
2023-04-16T20:21:54.089Z,10.48
2023-04-16T20:24:41.445Z,10.47
2023-04-16T20:27:26.457Z,10.80
2023-04-16T20:30:12.342Z,10.77
2023-04-16T20:32:57.568Z,10.45
2023-04-16T20:35:42.551Z,10.30
2023-04-16T20:38:29.432Z,9.80
2023-04-16T20:41:21.194Z,11.40
2023-04-16T20:44:09.945Z,10.00
2023-04-16T20:46:56.875Z,10.13
2023-04-16T20:49:46.471Z,11.70
2023-04-16T20:52:31.247Z,9.20
2023-04-16T20:55:16.602Z,10.07
2023-04-16T20:58:01.668Z,10.38
2023-04-16T21:00:51.168Z,11.65
2023-04-16T21:03:36.360Z,11.70
2023-04-16T21:06:22.389Z,9.83
2023-04-16T21:09:07.454Z,10.35
2023-04-16T21:11:52.372Z,10.63
2023-04-16T21:14:37.468Z,10.38
2023-04-16T21:17:22.147Z,10.52
2023-04-16T21:20:10.636Z,10.40
2023-04-16T21:22:56.784Z,9.90
2023-04-16T21:25:41.869Z,10.40
2023-04-16T21:28:26.801Z,10.98
2023-04-16T21:31:11.871Z,11.15
2023-04-16T21:33:56.797Z,10.17
2023-04-16T21:36:41.816Z,10.50
2023-04-16T21:39:30.860Z,11.20
2023-04-16T21:42:15.918Z,9.70
2023-04-16T21:45:00.759Z,9.65
2023-04-16T21:47:45.981Z,9.93
2023-04-16T21:50:30.806Z,9.27
2023-04-16T21:53:15.962Z,9.85
2023-04-16T21:56:00.822Z,8.20
2023-04-16T21:58:45.506Z,8.77
2023-04-16T22:01:30.429Z,10.60
2023-04-16T22:04:15.485Z,10.52
2023-04-16T22:07:03.123Z,11.00
2023-04-16T22:09:47.873Z,9.27
2023-04-16T22:12:32.729Z,10.52
2023-04-16T22:15:17.731Z,10.77
2023-04-16T22:18:02.829Z,10.45
2023-04-16T22:20:50.576Z,11.60
2023-04-16T22:23:35.470Z,11.13
2023-04-16T22:26:20.798Z,12.23
2023-04-16T22:29:06.397Z,11.60
2023-04-16T22:31:51.463Z,12.30
2023-04-16T22:34:36.397Z,12.05
2023-04-16T22:37:21.399Z,12.95
2023-04-16T22:40:08.381Z,13.32
2023-04-16T22:42:53.278Z,11.93
2023-04-16T22:45:38.483Z,12.25
2023-04-16T22:48:23.193Z,10.55
2023-04-16T22:51:08.749Z,13.82
2023-04-16T22:53:53.747Z,12.70
2023-04-16T22:56:38.865Z,12.50
2023-04-16T22:59:24.490Z,12.40
2023-04-16T23:02:09.438Z,11.70
2023-04-16T23:04:54.172Z,14.00
2023-04-16T23:07:39.347Z,13.68
2023-04-16T23:10:24.030Z,15.40
2023-04-16T23:13:09.111Z,12.57
2023-04-16T23:15:53.972Z,14.75
2023-04-16T23:18:39.350Z,14.48
2023-04-16T23:21:24.114Z,15.35
2023-04-16T23:24:09.267Z,16.03
2023-04-16T23:26:54.113Z,14.82
2023-04-16T23:29:39.249Z,16.38
2023-04-16T23:32:23.889Z,14.75
2023-04-16T23:35:09.329Z,15.88
2023-04-16T23:37:54.408Z,17.13
2023-04-16T23:40:39.205Z,14.13
2023-04-16T23:43:23.989Z,17.55
2023-04-16T23:46:09.053Z,17.63
2023-04-16T23:48:55.086Z,17.52
2023-04-16T23:51:39.994Z,17.70
2023-04-16T23:54:25.278Z,17.13
2023-04-16T23:57:10.269Z,16.73
2023-04-16T23:59:55.312Z,18.23
